createdAt,value
2018-03-06T05:00:54.649Z,0
2018-03-06T05:01:20.118Z,0
2018-03-06T05:01:45.616Z,0
2018-03-06T05:02:11.185Z,0
2018-03-06T05:02:36.724Z,0
2018-03-06T05:03:02.198Z,0
2018-03-06T05:03:28.005Z,0
2018-03-06T05:03:53.536Z,0
2018-03-06T05:04:19.141Z,0
2018-03-06T05:04:44.574Z,0
2018-03-06T05:05:10.047Z,0
2018-03-06T05:05:35.569Z,0
2018-03-06T05:06:01.039Z,0
2018-03-06T05:06:26.578Z,0
2018-03-06T05:06:52.068Z,0
2018-03-06T05:07:17.584Z,0
2018-03-06T05:07:43.059Z,0
2018-03-06T05:08:08.557Z,0
2018-03-06T05:08:34.044Z,0
2018-03-06T05:08:59.539Z,0
2018-03-06T05:09:24.997Z,0
2018-03-06T05:09:50.450Z,0
2018-03-06T05:10:15.930Z,0
2018-03-06T05:10:41.434Z,0
2018-03-06T05:11:06.965Z,0
2018-03-06T05:11:32.424Z,0
2018-03-06T05:11:57.884Z,0
2018-03-06T05:12:23.389Z,0
2018-03-06T05:12:48.857Z,0
2018-03-06T05:13:14.295Z,0
2018-03-06T05:13:39.822Z,0
2018-03-06T05:14:05.292Z,0
2018-03-06T05:14:30.779Z,0
2018-03-06T05:14:56.288Z,0
2018-03-06T05:15:21.740Z,0
2018-03-06T05:15:47.235Z,0
2018-03-06T05:16:12.705Z,0
2018-03-06T05:16:38.206Z,0
2018-03-06T05:17:03.781Z,0
2018-03-06T05:17:29.275Z,0
2018-03-06T05:17:54.740Z,0
2018-03-06T05:18:20.265Z,0
2018-03-06T05:18:45.810Z,0
2018-03-06T05:19:11.312Z,0
2018-03-06T05:19:36.800Z,0
2018-03-06T05:20:02.293Z,0
2018-03-06T05:20:27.802Z,0
2018-03-06T05:20:53.262Z,0
2018-03-06T05:21:18.734Z,0
2018-03-06T05:21:44.258Z,0
2018-03-06T05:22:09.733Z,0
2018-03-06T05:22:35.248Z,0
2018-03-06T05:23:00.807Z,0
2018-03-06T05:23:26.347Z,0
2018-03-06T05:23:51.837Z,0
2018-03-06T05:24:17.316Z,0
2018-03-06T05:24:42.874Z,0
2018-03-06T05:25:08.369Z,0
2018-03-06T05:25:33.905Z,0
2018-03-06T05:25:59.381Z,0
2018-03-06T05:26:24.898Z,0
2018-03-06T05:26:50.366Z,0
2018-03-06T05:27:15.840Z,0
2018-03-06T05:27:41.362Z,0
2018-03-06T05:28:06.859Z,0
2018-03-06T05:28:32.378Z,0
2018-03-06T05:28:57.874Z,0
2018-03-06T05:29:23.363Z,0
2018-03-06T05:29:48.874Z,0
2018-03-06T05:30:14.368Z,0
2018-03-06T05:30:39.876Z,0
2018-03-06T05:31:05.368Z,0
2018-03-06T05:31:30.855Z,0
2018-03-06T05:31:56.355Z,0
2018-03-06T05:32:21.803Z,0
2018-03-06T05:32:47.328Z,0
2018-03-06T05:33:12.843Z,0
2018-03-06T05:33:38.310Z,0
2018-03-06T05:34:03.780Z,0
2018-03-06T05:34:29.272Z,0
2018-03-06T05:34:54.750Z,0
2018-03-06T05:35:20.315Z,0
2018-03-06T05:35:45.788Z,0
2018-03-06T05:36:11.432Z,0
2018-03-06T05:36:36.950Z,0
2018-03-06T05:37:02.482Z,0
2018-03-06T05:37:28.148Z,0
2018-03-06T05:37:53.689Z,0
2018-03-06T05:38:19.186Z,0
2018-03-06T05:38:44.709Z,0
2018-03-06T05:39:10.275Z,0
2018-03-06T05:39:35.752Z,0
2018-03-06T05:40:01.220Z,0
2018-03-06T05:40:26.685Z,0
2018-03-06T05:40:52.183Z,0
2018-03-06T05:41:17.755Z,0
2018-03-06T05:41:43.271Z,0
2018-03-06T05:42:08.783Z,0
2018-03-06T05:42:34.357Z,0
2018-03-06T05:42:59.837Z,0
2018-03-06T05:43:25.376Z,0
2018-03-06T05:43:50.884Z,0
2018-03-06T05:44:16.489Z,0
2018-03-06T05:44:42.057Z,0
2018-03-06T05:45:07.535Z,0
2018-03-06T05:45:33.020Z,0
2018-03-06T05:45:58.504Z,0
2018-03-06T05:46:23.986Z,0
2018-03-06T05:46:49.484Z,0
2018-03-06T05:47:14.977Z,0
2018-03-06T05:47:40.446Z,0
2018-03-06T05:48:05.939Z,0
2018-03-06T05:48:31.435Z,0
2018-03-06T05:48:57.035Z,0
2018-03-06T05:49:22.536Z,0
2018-03-06T05:49:48.023Z,0
2018-03-06T05:50:13.763Z,0
2018-03-06T05:50:39.272Z,0
2018-03-06T05:51:04.825Z,0
2018-03-06T05:51:30.337Z,0
2018-03-06T05:51:56.013Z,0
2018-03-06T05:52:21.377Z,0
2018-03-06T05:52:47.119Z,0
2018-03-06T05:53:12.814Z,0
2018-03-06T05:53:38.334Z,0
2018-03-06T05:54:03.952Z,0
2018-03-06T05:54:29.466Z,0
2018-03-06T05:54:54.984Z,0
2018-03-06T05:55:20.672Z,0
2018-03-06T05:55:46.096Z,0
2018-03-06T05:56:11.576Z,0
2018-03-06T05:56:37.083Z,0
2018-03-06T05:57:02.528Z,0
2018-03-06T05:57:27.983Z,0
2018-03-06T05:57:53.428Z,0
2018-03-06T05:58:18.931Z,0
2018-03-06T05:58:44.437Z,0
2018-03-06T05:59:09.838Z,0
2018-03-06T05:59:35.333Z,0
2018-03-06T06:00:00.819Z,0
2018-03-06T06:00:26.248Z,0
2018-03-06T06:00:51.750Z,0
2018-03-06T06:01:17.147Z,5
2018-03-06T06:01:42.640Z,5
2018-03-06T06:02:08.147Z,5
2018-03-06T06:02:33.661Z,5
2018-03-06T06:02:59.059Z,5
2018-03-06T06:03:24.508Z,5
2018-03-06T06:03:50.036Z,5
2018-03-06T06:04:15.529Z,5
2018-03-06T06:04:40.978Z,5
2018-03-06T06:05:06.496Z,5
2018-03-06T06:05:31.904Z,5
2018-03-06T06:05:57.391Z,5
2018-03-06T06:06:22.851Z,5
2018-03-06T06:06:48.445Z,5
2018-03-06T06:07:13.798Z,5
2018-03-06T06:07:39.306Z,5
2018-03-06T06:08:04.753Z,5
2018-03-06T06:08:30.161Z,10
2018-03-06T06:08:55.679Z,10
2018-03-06T06:09:21.174Z,10
2018-03-06T06:09:46.571Z,10
2018-03-06T06:10:12.126Z,10
2018-03-06T06:10:37.625Z,10
2018-03-06T06:11:03.124Z,10
2018-03-06T06:11:28.638Z,10
2018-03-06T06:11:54.141Z,10
2018-03-06T06:12:19.646Z,10
2018-03-06T06:12:45.126Z,10
2018-03-06T06:13:10.575Z,15
2018-03-06T06:13:36.074Z,15
2018-03-06T06:14:01.560Z,15
2018-03-06T06:14:27.028Z,15
2018-03-06T06:14:52.537Z,15
2018-03-06T06:15:18.056Z,15
2018-03-06T06:15:43.495Z,15
2018-03-06T06:16:08.971Z,15
2018-03-06T06:16:34.452Z,15
2018-03-06T06:16:59.930Z,15
2018-03-06T06:17:25.413Z,20
2018-03-06T06:17:50.949Z,20
2018-03-06T06:18:16.500Z,20
2018-03-06T06:18:42.056Z,20
2018-03-06T06:19:07.633Z,20
2018-03-06T06:19:33.147Z,20
2018-03-06T06:19:58.642Z,20
2018-03-06T06:20:24.129Z,20
2018-03-06T06:20:49.576Z,20
2018-03-06T06:21:15.081Z,20
2018-03-06T06:21:40.623Z,20
2018-03-06T06:22:06.100Z,20
2018-03-06T06:22:31.588Z,20
2018-03-06T06:22:57.024Z,20
2018-03-06T06:23:22.533Z,20
2018-03-06T06:23:48.038Z,20
2018-03-06T06:24:13.539Z,25
2018-03-06T06:24:38.961Z,25
2018-03-06T06:25:04.460Z,25
2018-03-06T06:25:29.948Z,25
2018-03-06T06:25:55.424Z,25
2018-03-06T06:26:20.939Z,25
2018-03-06T06:26:46.388Z,25
2018-03-06T06:27:11.864Z,25
2018-03-06T06:27:37.371Z,30
2018-03-06T06:28:02.859Z,30
2018-03-06T06:28:28.393Z,30
2018-03-06T06:28:53.965Z,30
2018-03-06T06:29:19.436Z,30
2018-03-06T06:29:44.924Z,30
2018-03-06T06:30:10.393Z,30
2018-03-06T06:31:24.190Z,35
2018-03-06T06:31:49.689Z,35
2018-03-06T06:32:15.184Z,35
2018-03-06T06:32:40.655Z,35
2018-03-06T06:33:06.164Z,35
2018-03-06T06:33:31.790Z,35
2018-03-06T06:33:57.292Z,35
2018-03-06T06:34:22.749Z,35
2018-03-06T06:34:48.262Z,35
2018-03-06T06:35:13.762Z,40
2018-03-06T06:35:39.228Z,40
2018-03-06T06:36:04.696Z,40
2018-03-06T06:36:30.201Z,40
2018-03-06T06:36:55.723Z,40
2018-03-06T06:37:21.254Z,40
2018-03-06T06:37:46.662Z,40
2018-03-06T06:38:12.194Z,40
2018-03-06T06:38:37.701Z,45
2018-03-06T06:39:03.283Z,45
2018-03-06T06:39:28.770Z,45
2018-03-06T06:39:54.256Z,45
2018-03-06T06:40:19.925Z,45
2018-03-06T06:40:45.590Z,45
2018-03-06T06:41:11.067Z,50
2018-03-06T06:41:36.580Z,50
2018-03-06T06:42:02.127Z,50
2018-03-06T06:42:27.633Z,55
2018-03-06T06:42:53.154Z,55
2018-03-06T06:43:18.638Z,55
2018-03-06T06:43:44.139Z,60
2018-03-06T06:44:09.624Z,55
2018-03-06T06:44:35.070Z,55
2018-03-06T06:45:00.507Z,55
2018-03-06T06:45:26.001Z,60
2018-03-06T06:45:51.457Z,60
2018-03-06T06:46:16.907Z,60
2018-03-06T06:46:42.372Z,65
2018-03-06T06:47:07.913Z,65
2018-03-06T06:47:33.427Z,65
2018-03-06T06:47:58.891Z,65
2018-03-06T06:48:24.466Z,65
2018-03-06T06:48:49.868Z,65
2018-03-06T06:49:15.344Z,70
2018-03-06T06:49:40.827Z,70
2018-03-06T06:50:06.316Z,75
2018-03-06T06:50:31.881Z,75
2018-03-06T06:50:57.408Z,75
2018-03-06T06:51:22.871Z,75
2018-03-06T06:51:48.430Z,75
2018-03-06T06:52:13.924Z,75
2018-03-06T06:52:39.523Z,70
2018-03-06T06:53:04.970Z,70
2018-03-06T06:53:30.434Z,75
2018-03-06T06:53:55.979Z,75
2018-03-06T06:54:21.499Z,75
2018-03-06T06:54:46.960Z,75
2018-03-06T06:55:12.427Z,75
2018-03-06T06:55:37.917Z,75
2018-03-06T06:56:03.394Z,75
2018-03-06T06:56:28.903Z,75
2018-03-06T06:56:54.398Z,75
2018-03-06T06:57:19.871Z,70
2018-03-06T06:57:45.346Z,70
2018-03-06T06:58:10.900Z,70
2018-03-06T06:58:36.380Z,70
2018-03-06T06:59:01.847Z,70
2018-03-06T06:59:27.479Z,70
2018-03-06T06:59:52.959Z,70
2018-03-06T07:00:18.423Z,70
2018-03-06T07:00:43.937Z,70
2018-03-06T07:01:09.467Z,70
2018-03-06T07:01:34.935Z,65
2018-03-06T07:02:00.354Z,65
2018-03-06T07:02:25.872Z,70
2018-03-06T07:02:51.377Z,70
2018-03-06T07:03:16.863Z,70
2018-03-06T07:03:42.290Z,70
2018-03-06T07:04:07.811Z,70
2018-03-06T07:04:33.303Z,70
2018-03-06T07:04:58.763Z,75
2018-03-06T07:05:24.322Z,75
2018-03-06T07:05:49.724Z,75
2018-03-06T07:06:15.209Z,75
2018-03-06T07:06:40.680Z,75
2018-03-06T07:07:06.163Z,70
2018-03-06T07:07:31.692Z,75
2018-03-06T07:07:57.116Z,75
2018-03-06T07:08:22.591Z,75
2018-03-06T07:08:48.017Z,75
2018-03-06T07:09:13.567Z,75
2018-03-06T07:09:39.058Z,75
2018-03-06T07:10:04.509Z,75
2018-03-06T07:10:30.009Z,80
2018-03-06T07:10:55.518Z,75
2018-03-06T07:11:21.004Z,80
2018-03-06T07:11:46.504Z,80
2018-03-06T07:12:11.990Z,90
2018-03-06T07:12:37.459Z,90
2018-03-06T07:13:02.913Z,90
2018-03-06T07:13:28.350Z,85
2018-03-06T07:13:53.788Z,85
2018-03-06T07:14:19.273Z,85
2018-03-06T07:14:44.794Z,90
2018-03-06T07:15:10.269Z,90
2018-03-06T07:15:35.779Z,90
2018-03-06T07:16:01.243Z,90
2018-03-06T07:16:26.697Z,95
2018-03-06T07:16:52.197Z,100
2018-03-06T07:17:17.663Z,100
2018-03-06T07:17:43.146Z,100
2018-03-06T07:18:08.593Z,100
2018-03-06T07:18:34.048Z,105
2018-03-06T07:18:59.516Z,105
2018-03-06T07:19:24.983Z,105
2018-03-06T07:19:50.480Z,110
2018-03-06T07:20:16.005Z,110
2018-03-06T07:20:41.509Z,110
2018-03-06T07:21:07.022Z,110
2018-03-06T07:21:32.475Z,110
2018-03-06T07:21:57.974Z,110
2018-03-06T07:22:23.446Z,110
2018-03-06T07:22:48.925Z,110
2018-03-06T07:23:14.382Z,115
2018-03-06T07:23:39.877Z,115
2018-03-06T07:24:05.330Z,115
2018-03-06T07:24:30.870Z,115
2018-03-06T07:24:56.287Z,115
2018-03-06T07:25:21.831Z,115
2018-03-06T07:25:47.331Z,115
2018-03-06T07:26:12.831Z,110
2018-03-06T07:26:38.330Z,110
2018-03-06T07:27:03.876Z,105
2018-03-06T07:27:29.272Z,110
2018-03-06T07:28:54.317Z,110
2018-03-06T07:29:19.856Z,110
2018-03-06T07:29:45.324Z,110
2018-03-06T07:30:10.815Z,110
2018-03-06T07:30:36.294Z,110
2018-03-06T07:31:01.704Z,110
2018-03-06T07:31:27.182Z,110
2018-03-06T07:31:52.599Z,110
2018-03-06T07:32:18.065Z,110
2018-03-06T07:32:43.542Z,110
2018-03-06T07:33:09.025Z,110
2018-03-06T07:33:34.518Z,105
2018-03-06T07:34:00.058Z,105
2018-03-06T07:35:13.851Z,110
2018-03-06T07:35:39.349Z,110
2018-03-06T07:36:04.805Z,110
2018-03-06T07:36:30.298Z,110
2018-03-06T07:36:55.811Z,115
2018-03-06T07:37:21.355Z,115
2018-03-06T07:37:46.856Z,115
2018-03-06T07:38:12.338Z,115
2018-03-06T07:38:37.810Z,115
2018-03-06T07:39:03.325Z,110
2018-03-06T07:39:28.796Z,110
2018-03-06T07:39:54.322Z,110
2018-03-06T07:40:19.767Z,110
2018-03-06T07:40:45.235Z,110
2018-03-06T07:41:10.712Z,110
2018-03-06T07:41:36.230Z,110
2018-03-06T07:42:01.715Z,110
2018-03-06T07:42:27.203Z,110
2018-03-06T07:42:52.679Z,110
2018-03-06T07:43:18.251Z,110
2018-03-06T07:43:43.750Z,105
2018-03-06T07:44:09.237Z,105
2018-03-06T07:44:34.768Z,105
2018-03-06T07:45:00.282Z,105
2018-03-06T07:45:25.771Z,105
2018-03-06T07:45:51.242Z,105
2018-03-06T07:46:16.715Z,105
2018-03-06T07:46:42.245Z,105
2018-03-06T07:47:07.730Z,105
2018-03-06T07:47:33.202Z,105
2018-03-06T07:47:58.674Z,105
2018-03-06T07:48:24.193Z,105
2018-03-06T07:48:49.686Z,105
2018-03-06T07:49:15.212Z,105
2018-03-06T07:49:40.686Z,110
2018-03-06T07:50:06.180Z,105
2018-03-06T07:50:31.661Z,100
2018-03-06T07:50:57.184Z,100
2018-03-06T07:51:22.692Z,100
2018-03-06T07:51:48.204Z,100
2018-03-06T07:52:13.714Z,100
2018-03-06T07:52:39.236Z,100
2018-03-06T07:53:04.754Z,100
2018-03-06T07:53:30.193Z,100
2018-03-06T07:53:55.707Z,100
2018-03-06T07:54:21.208Z,100
2018-03-06T07:54:46.687Z,100
2018-03-06T07:55:12.163Z,100
2018-03-06T07:55:37.635Z,100
2018-03-06T07:56:03.116Z,100
2018-03-06T07:56:28.594Z,100
2018-03-06T07:56:54.059Z,100
2018-03-06T07:57:19.512Z,100
2018-03-06T07:57:45.014Z,100
2018-03-06T07:58:10.472Z,100
2018-03-06T07:58:35.992Z,100
2018-03-06T07:59:01.492Z,100
2018-03-06T07:59:26.976Z,100
2018-03-06T07:59:52.443Z,100
2018-03-06T08:00:17.908Z,100
2018-03-06T08:00:43.432Z,105
2018-03-06T08:01:08.923Z,100
2018-03-06T08:01:34.410Z,100
2018-03-06T08:01:59.896Z,100
2018-03-06T08:02:25.377Z,100
2018-03-06T08:02:50.938Z,100
2018-03-06T08:03:16.353Z,100
2018-03-06T08:03:41.807Z,100
2018-03-06T08:04:07.310Z,105
2018-03-06T08:04:32.793Z,105
2018-03-06T08:04:58.242Z,105
2018-03-06T08:05:23.735Z,105
2018-03-06T08:05:49.229Z,105
2018-03-06T08:06:14.772Z,105
2018-03-06T08:06:40.244Z,105
2018-03-06T08:07:05.722Z,105
2018-03-06T08:07:31.223Z,105
2018-03-06T08:07:56.774Z,105
2018-03-06T08:09:15.680Z,110
2018-03-06T08:09:41.161Z,110
2018-03-06T08:10:06.663Z,110
2018-03-06T08:10:32.130Z,110
2018-03-06T08:10:57.575Z,110
2018-03-06T08:11:23.058Z,110
2018-03-06T08:11:48.566Z,110
2018-03-06T08:12:13.965Z,110
2018-03-06T08:12:39.421Z,110
2018-03-06T08:13:04.942Z,110
2018-03-06T08:13:30.348Z,110
2018-03-06T08:13:55.855Z,110
2018-03-06T08:14:21.428Z,110
2018-03-06T08:14:46.891Z,110
2018-03-06T08:16:16.030Z,110
2018-03-06T08:16:41.529Z,110
2018-03-06T08:17:07.002Z,110
2018-03-06T08:17:32.477Z,110
2018-03-06T08:17:57.988Z,110
2018-03-06T08:18:23.512Z,110
2018-03-06T08:18:49.011Z,110
2018-03-06T08:19:14.559Z,110
2018-03-06T08:19:40.032Z,115
2018-03-06T08:20:05.512Z,115
2018-03-06T08:20:31.011Z,115
2018-03-06T08:20:56.468Z,115
2018-03-06T08:21:21.949Z,115
2018-03-06T08:21:47.436Z,115
2018-03-06T08:22:12.913Z,115
2018-03-06T08:22:38.381Z,115
2018-03-06T08:23:03.903Z,115
2018-03-06T08:23:29.382Z,115
2018-03-06T08:23:54.964Z,115
2018-03-06T08:24:20.388Z,115
2018-03-06T08:24:45.879Z,120
2018-03-06T08:25:11.392Z,120
2018-03-06T08:25:36.863Z,120
2018-03-06T08:26:02.424Z,125
2018-03-06T08:26:27.880Z,125
2018-03-06T08:26:53.348Z,125
2018-03-06T08:27:18.814Z,125
2018-03-06T08:27:44.277Z,130
2018-03-06T08:28:09.775Z,130
2018-03-06T08:28:35.288Z,130
2018-03-06T08:29:00.758Z,130
2018-03-06T08:29:26.253Z,130
2018-03-06T08:29:51.758Z,135
2018-03-06T08:30:17.340Z,130
2018-03-06T08:30:42.792Z,125
2018-03-06T08:31:08.315Z,120
2018-03-06T08:31:33.821Z,120
2018-03-06T08:31:59.345Z,120
2018-03-06T08:32:24.888Z,120
2018-03-06T08:32:50.320Z,125
2018-03-06T08:33:15.850Z,125
2018-03-06T08:33:41.343Z,130
2018-03-06T08:34:06.850Z,130
2018-03-06T08:35:15.542Z,135
2018-03-06T08:35:40.990Z,135
2018-03-06T08:36:06.456Z,135
2018-03-06T08:36:31.989Z,135
2018-03-06T08:36:57.459Z,135
2018-03-06T08:37:22.934Z,135
2018-03-06T08:37:48.466Z,140
2018-03-06T08:38:13.971Z,140
2018-03-06T08:38:39.451Z,140
2018-03-06T08:39:04.919Z,140
2018-03-06T08:40:13.625Z,140
2018-03-06T08:40:39.131Z,140
2018-03-06T08:41:04.648Z,140
2018-03-06T08:41:30.141Z,140
2018-03-06T08:41:55.647Z,140
2018-03-06T08:42:21.112Z,140
2018-03-06T08:42:46.639Z,140
2018-03-06T08:43:12.135Z,140
2018-03-06T08:43:37.629Z,140
2018-03-06T08:44:03.137Z,140
2018-03-06T08:44:28.638Z,140
2018-03-06T08:44:54.169Z,140
2018-03-06T08:45:19.657Z,140
2018-03-06T08:45:45.199Z,145
2018-03-06T08:46:10.624Z,140
2018-03-06T08:46:36.108Z,140
2018-03-06T08:47:01.597Z,140
2018-03-06T08:47:27.064Z,140
2018-03-06T08:47:52.590Z,145
2018-03-06T08:48:18.098Z,145
2018-03-06T08:48:43.615Z,140
2018-03-06T08:49:09.152Z,140
2018-03-06T08:49:34.654Z,140
2018-03-06T08:50:00.135Z,145
2018-03-06T08:51:19.107Z,145
2018-03-06T08:51:44.569Z,145
2018-03-06T08:52:10.035Z,145
2018-03-06T08:52:35.539Z,145
2018-03-06T08:53:01.040Z,145
2018-03-06T08:53:26.536Z,150
2018-03-06T08:53:52.020Z,150
2018-03-06T08:55:00.745Z,155
2018-03-06T08:55:26.262Z,155
2018-03-06T08:55:51.714Z,155
2018-03-06T08:56:17.231Z,160
2018-03-06T08:56:42.734Z,160
2018-03-06T08:57:08.316Z,160
2018-03-06T08:57:33.829Z,165
2018-03-06T08:57:59.319Z,160
2018-03-06T08:58:24.827Z,160
2018-03-06T08:58:50.309Z,160
2018-03-06T08:59:15.779Z,160
2018-03-06T08:59:41.276Z,160
2018-03-06T09:00:06.857Z,160
2018-03-06T09:00:32.357Z,160
2018-03-06T09:00:57.863Z,160
2018-03-06T09:01:23.368Z,155
2018-03-06T09:01:48.923Z,155
2018-03-06T09:02:14.412Z,155
2018-03-06T09:02:39.909Z,155
2018-03-06T09:03:05.426Z,155
2018-03-06T09:03:31.062Z,155
2018-03-06T09:03:56.604Z,155
2018-03-06T09:04:22.122Z,155
2018-03-06T09:04:47.747Z,155
2018-03-06T09:05:13.310Z,155
2018-03-06T09:06:22.037Z,160
2018-03-06T09:06:47.521Z,160
2018-03-06T09:07:13.036Z,165
2018-03-06T09:07:38.591Z,165
2018-03-06T09:08:04.135Z,165
2018-03-06T09:08:29.614Z,165
2018-03-06T09:08:55.127Z,165
2018-03-06T09:09:20.610Z,165
2018-03-06T09:09:46.254Z,165
2018-03-06T09:10:11.738Z,165
2018-03-06T09:10:37.204Z,165
2018-03-06T09:11:02.664Z,165
2018-03-06T09:11:28.139Z,165
2018-03-06T09:11:53.729Z,165
2018-03-06T09:12:19.212Z,165
2018-03-06T09:12:44.678Z,165
2018-03-06T09:13:10.231Z,165
2018-03-06T09:13:35.735Z,165
2018-03-06T09:14:01.202Z,165
2018-03-06T09:14:26.662Z,165
2018-03-06T09:14:52.159Z,165
2018-03-06T09:15:17.660Z,165
2018-03-06T09:15:43.202Z,165
2018-03-06T09:16:08.691Z,165
2018-03-06T09:16:34.162Z,160
2018-03-06T09:16:59.639Z,160
2018-03-06T09:17:25.161Z,160
2018-03-06T09:17:50.646Z,160
2018-03-06T09:18:16.131Z,160
2018-03-06T09:18:41.581Z,160
2018-03-06T09:19:07.054Z,155
2018-03-06T09:19:32.564Z,155
2018-03-06T09:19:58.017Z,155
2018-03-06T09:21:22.058Z,155
2018-03-06T09:21:47.530Z,160
2018-03-06T09:22:13.004Z,160
2018-03-06T09:22:38.450Z,160
2018-03-06T09:23:03.953Z,160
2018-03-06T09:23:29.445Z,160
2018-03-06T09:23:54.896Z,165
2018-03-06T09:24:20.352Z,165
2018-03-06T09:24:45.923Z,165
2018-03-06T09:25:11.458Z,160
2018-03-06T09:25:36.868Z,160
2018-03-06T09:26:02.446Z,155
2018-03-06T09:26:27.907Z,165
2018-03-06T09:26:53.323Z,165
2018-03-06T09:27:18.780Z,165
2018-03-06T09:27:44.259Z,165
2018-03-06T09:28:09.804Z,165
2018-03-06T09:28:35.328Z,165
2018-03-06T09:29:00.848Z,165
2018-03-06T09:29:26.296Z,170
2018-03-06T09:29:51.762Z,170
2018-03-06T09:30:17.240Z,170
2018-03-06T09:30:42.732Z,170
2018-03-06T09:31:08.196Z,170
2018-03-06T09:31:33.682Z,170
2018-03-06T09:31:59.147Z,170
2018-03-06T09:32:24.652Z,170
2018-03-06T09:32:50.217Z,165
2018-03-06T09:33:15.725Z,165
2018-03-06T09:33:41.198Z,170
2018-03-06T09:34:06.840Z,170
2018-03-06T09:34:32.264Z,175
2018-03-06T09:34:57.768Z,175
2018-03-06T09:35:23.209Z,180
2018-03-06T09:35:48.686Z,180
2018-03-06T09:36:14.151Z,185
2018-03-06T09:36:39.642Z,185
2018-03-06T09:37:05.116Z,190
2018-03-06T09:37:30.582Z,190
2018-03-06T09:37:56.150Z,195
2018-03-06T09:38:21.667Z,200
2018-03-06T09:38:47.162Z,200
2018-03-06T09:39:12.634Z,200
2018-03-06T09:39:38.104Z,200
2018-03-06T09:40:03.660Z,200
2018-03-06T09:40:29.131Z,200
2018-03-06T09:40:54.685Z,200
2018-03-06T09:41:20.137Z,200
2018-03-06T09:41:45.657Z,200
2018-03-06T09:42:11.179Z,200
2018-03-06T09:42:36.649Z,200
2018-03-06T09:43:02.144Z,200
2018-03-06T09:43:27.627Z,200
2018-03-06T09:43:53.087Z,200
2018-03-06T09:44:18.608Z,200
2018-03-06T09:44:44.161Z,205
2018-03-06T09:45:09.625Z,205
2018-03-06T09:45:35.123Z,205
2018-03-06T09:46:00.635Z,205
2018-03-06T09:46:26.131Z,200
2018-03-06T09:46:51.611Z,200
2018-03-06T09:47:17.092Z,195
2018-03-06T09:47:42.572Z,195
2018-03-06T09:48:08.035Z,190
2018-03-06T09:48:33.500Z,185
2018-03-06T09:48:59.019Z,190
2018-03-06T09:49:24.476Z,180
2018-03-06T09:49:49.991Z,180
2018-03-06T09:50:15.436Z,175
2018-03-06T09:50:40.920Z,170
2018-03-06T09:51:06.505Z,170
2018-03-06T09:51:31.949Z,165
2018-03-06T09:51:57.417Z,165
2018-03-06T09:52:22.925Z,165
2018-03-06T09:52:48.333Z,165
2018-03-06T09:53:13.775Z,165
2018-03-06T09:53:39.228Z,160
2018-03-06T09:54:04.729Z,160
2018-03-06T09:54:30.207Z,160
2018-03-06T09:54:55.790Z,160
2018-03-06T09:55:21.220Z,160
2018-03-06T09:55:46.723Z,155
2018-03-06T09:56:12.189Z,155
2018-03-06T09:56:37.654Z,155
2018-03-06T09:57:03.148Z,160
2018-03-06T09:57:28.602Z,160
2018-03-06T09:58:37.353Z,160
2018-03-06T09:59:02.806Z,160
2018-03-06T09:59:28.329Z,160
2018-03-06T09:59:53.810Z,160
2018-03-06T10:00:19.318Z,160
2018-03-06T10:00:44.786Z,160
2018-03-06T10:01:10.254Z,160
2018-03-06T10:01:35.752Z,160
2018-03-06T10:02:01.206Z,160
2018-03-06T10:02:26.663Z,160
2018-03-06T10:02:52.188Z,160
2018-03-06T10:03:17.677Z,160
2018-03-06T10:03:43.144Z,160
2018-03-06T10:05:02.112Z,160
2018-03-06T10:05:27.579Z,160
2018-03-06T10:05:53.056Z,160
2018-03-06T10:06:18.525Z,160
2018-03-06T10:06:44.007Z,160
2018-03-06T10:07:09.499Z,160
2018-03-06T10:07:34.969Z,160
2018-03-06T10:09:04.078Z,165
2018-03-06T10:09:29.595Z,165
2018-03-06T10:09:55.066Z,165
2018-03-06T10:10:20.528Z,165
2018-03-06T10:10:45.975Z,160
2018-03-06T10:11:11.479Z,165
2018-03-06T10:11:36.955Z,165
2018-03-06T10:12:02.460Z,165
2018-03-06T10:12:27.986Z,165
2018-03-06T10:12:53.438Z,165
2018-03-06T10:14:02.167Z,165
2018-03-06T10:14:27.678Z,165
2018-03-06T10:14:53.154Z,170
2018-03-06T10:16:17.211Z,170
2018-03-06T10:16:42.727Z,170
2018-03-06T10:17:08.218Z,170
2018-03-06T10:17:33.762Z,170
2018-03-06T10:17:59.221Z,165
2018-03-06T10:18:24.743Z,165
2018-03-06T10:18:50.283Z,170
2018-03-06T10:19:15.749Z,170
2018-03-06T10:19:41.225Z,170
2018-03-06T10:20:06.692Z,170
2018-03-06T10:20:32.154Z,170
2018-03-06T10:21:56.149Z,170
2018-03-06T10:22:21.614Z,170
2018-03-06T10:22:47.127Z,170
2018-03-06T10:23:12.620Z,170
2018-03-06T10:23:38.093Z,170
2018-03-06T10:24:03.593Z,170
2018-03-06T10:24:29.128Z,170
2018-03-06T10:24:54.652Z,170
2018-03-06T10:25:20.154Z,170
2018-03-06T10:25:45.643Z,170
2018-03-06T10:26:11.095Z,170
2018-03-06T10:26:36.636Z,170
2018-03-06T10:27:02.122Z,175
2018-03-06T10:27:27.588Z,170
2018-03-06T10:27:53.082Z,170
2018-03-06T10:28:18.529Z,170
2018-03-06T10:28:44.007Z,175
2018-03-06T10:29:09.528Z,175
2018-03-06T10:29:35.010Z,175
2018-03-06T10:30:00.447Z,175
2018-03-06T10:30:25.957Z,175
2018-03-06T10:30:51.483Z,175
2018-03-06T10:31:17.002Z,175
2018-03-06T10:31:42.482Z,170
2018-03-06T10:32:07.961Z,170
2018-03-06T10:32:33.471Z,170
2018-03-06T10:32:59.007Z,170
2018-03-06T10:33:24.497Z,170
2018-03-06T10:33:50.022Z,175
2018-03-06T10:34:15.506Z,170
2018-03-06T10:34:41.064Z,170
2018-03-06T10:35:06.577Z,170
2018-03-06T10:35:32.056Z,170
2018-03-06T10:35:57.532Z,170
2018-03-06T10:36:23.032Z,170
2018-03-06T10:36:48.524Z,175
2018-03-06T10:37:14.007Z,175
2018-03-06T10:38:38.086Z,175
2018-03-06T10:39:03.566Z,175
2018-03-06T10:39:29.111Z,180
2018-03-06T10:39:54.563Z,175
2018-03-06T10:40:20.045Z,175
2018-03-06T10:40:45.528Z,180
2018-03-06T10:41:11.040Z,185
2018-03-06T10:41:36.507Z,180
2018-03-06T10:42:01.984Z,180
2018-03-06T10:42:27.492Z,180
2018-03-06T10:42:52.952Z,180
2018-03-06T10:43:18.407Z,175
2018-03-06T10:43:43.906Z,175
2018-03-06T10:44:09.392Z,175
2018-03-06T10:44:34.869Z,170
2018-03-06T10:45:00.404Z,170
2018-03-06T10:45:25.948Z,170
2018-03-06T10:45:51.335Z,165
2018-03-06T10:46:16.876Z,165
2018-03-06T10:46:42.266Z,165
2018-03-06T10:47:07.786Z,165
2018-03-06T10:47:33.255Z,160
2018-03-06T10:47:58.715Z,165
2018-03-06T10:48:24.295Z,160
2018-03-06T10:48:49.761Z,160
2018-03-06T10:49:15.253Z,160
2018-03-06T10:49:40.740Z,155
2018-03-06T10:50:06.163Z,155
2018-03-06T10:50:31.665Z,155
2018-03-06T10:50:57.208Z,150
2018-03-06T10:51:22.657Z,150
2018-03-06T10:51:48.214Z,150
2018-03-06T10:52:13.663Z,145
2018-03-06T10:52:39.180Z,145
2018-03-06T10:53:04.657Z,145
2018-03-06T10:53:30.140Z,145
2018-03-06T10:53:55.629Z,145
2018-03-06T10:54:21.153Z,140
2018-03-06T10:54:46.623Z,140
2018-03-06T10:55:12.136Z,140
2018-03-06T10:55:37.586Z,140
2018-03-06T10:56:03.103Z,140
2018-03-06T10:56:28.509Z,140
2018-03-06T10:56:54.166Z,140
2018-03-06T10:57:19.624Z,140
2018-03-06T10:57:45.225Z,145
2018-03-06T10:58:10.609Z,145
2018-03-06T10:58:36.131Z,145
2018-03-06T10:59:01.634Z,145
2018-03-06T10:59:27.123Z,145
2018-03-06T10:59:52.657Z,145
2018-03-06T11:00:18.183Z,150
2018-03-06T11:00:43.674Z,150
2018-03-06T11:01:09.172Z,150
2018-03-06T11:01:34.604Z,150
2018-03-06T11:02:00.060Z,150
2018-03-06T11:02:25.526Z,155
2018-03-06T11:02:51.005Z,155
2018-03-06T11:03:16.457Z,155
2018-03-06T11:03:41.966Z,155
2018-03-06T11:04:07.426Z,155
2018-03-06T11:04:32.925Z,155
2018-03-06T11:04:58.438Z,160
2018-03-06T11:05:23.927Z,160
2018-03-06T11:05:49.398Z,160
2018-03-06T11:06:14.910Z,160
2018-03-06T11:06:40.390Z,165
2018-03-06T11:07:05.886Z,165
2018-03-06T11:07:31.383Z,165
2018-03-06T11:07:56.871Z,165
2018-03-06T11:08:22.381Z,170
2018-03-06T11:08:47.864Z,170
2018-03-06T11:09:13.347Z,170
2018-03-06T11:09:38.836Z,170
2018-03-06T11:10:04.316Z,170
2018-03-06T11:10:29.806Z,175
2018-03-06T11:10:55.308Z,175
2018-03-06T11:11:20.865Z,170
2018-03-06T11:11:46.301Z,175
2018-03-06T11:12:11.762Z,175
2018-03-06T11:12:37.286Z,170
2018-03-06T11:13:02.808Z,170
2018-03-06T11:13:28.266Z,165
2018-03-06T11:13:53.746Z,165
2018-03-06T11:14:19.260Z,170